sensor_id;sensor_type;location;lat;lon;timestamp;pressure;altitude;pressure_sealevel;temperature;humidity
59951;BME280;45812;53.540;9.774;2022-12-07T00:00:29;101238.41;;;2.54;100.00
59951;BME280;45812;53.540;9.774;2022-12-07T00:02:54;101247.84;;;2.43;100.00
59951;BME280;45812;53.540;9.774;2022-12-07T00:05:19;101241.56;;;2.59;100.00
59951;BME280;45812;53.540;9.774;2022-12-07T00:07:45;101245.59;;;2.64;100.00
59951;BME280;45812;53.540;9.774;2022-12-07T00:10:10;101235.72;;;2.68;100.00
59951;BME280;45812;53.540;9.774;2022-12-07T00:12:35;101230.16;;;2.72;100.00
59951;BME280;45812;53.540;9.774;2022-12-07T00:15:00;101229.66;;;2.80;100.00
59951;BME280;45812;53.540;9.774;2022-12-07T00:17:26;101224.16;;;2.70;100.00
59951;BME280;45812;53.540;9.774;2022-12-07T00:19:51;101218.28;;;2.67;100.00
59951;BME280;45812;53.540;9.774;2022-12-07T00:22:16;101217.16;;;2.44;100.00
59951;BME280;45812;53.540;9.774;2022-12-07T00:24:41;101217.44;;;2.27;100.00
59951;BME280;45812;53.540;9.774;2022-12-07T00:27:06;101209.47;;;2.14;100.00
59951;BME280;45812;53.540;9.774;2022-12-07T00:29:32;101211.47;;;2.10;100.00
59951;BME280;45812;53.540;9.774;2022-12-07T00:31:57;101220.19;;;2.11;100.00
59951;BME280;45812;53.540;9.774;2022-12-07T00:34:22;101210.97;;;2.18;100.00
59951;BME280;45812;53.540;9.774;2022-12-07T00:36:48;101202.34;;;2.43;100.00
59951;BME280;45812;53.540;9.774;2022-12-07T00:39:13;101206.75;;;2.42;100.00
59951;BME280;45812;53.540;9.774;2022-12-07T00:41:39;101215.13;;;2.62;100.00
59951;BME280;45812;53.540;9.774;2022-12-07T00:44:04;101208.41;;;2.70;100.00
59951;BME280;45812;53.540;9.774;2022-12-07T00:46:30;101203.56;;;2.64;100.00
59951;BME280;45812;53.540;9.774;2022-12-07T00:48:55;101206.50;;;2.72;100.00
59951;BME280;45812;53.540;9.774;2022-12-07T00:51:22;101213.91;;;2.80;100.00
59951;BME280;45812;53.540;9.774;2022-12-07T00:53:48;101203.78;;;2.74;100.00
59951;BME280;45812;53.540;9.774;2022-12-07T00:56:16;101193.47;;;2.71;100.00
59951;BME280;45812;53.540;9.774;2022-12-07T00:58:42;101187.66;;;2.53;100.00
59951;BME280;45812;53.540;9.774;2022-12-07T01:01:08;101185.66;;;2.57;100.00
59951;BME280;45812;53.540;9.774;2022-12-07T01:03:34;101172.09;;;2.50;100.00
59951;BME280;45812;53.540;9.774;2022-12-07T01:06:00;101177.09;;;2.40;100.00
59951;BME280;45812;53.540;9.774;2022-12-07T01:08:26;101179.81;;;2.26;100.00
59951;BME280;45812;53.540;9.774;2022-12-07T01:11:04;101185.59;;;2.31;100.00
59951;BME280;45812;53.540;9.774;2022-12-07T01:13:30;101182.22;;;2.29;100.00
59951;BME280;45812;53.540;9.774;2022-12-07T01:15:58;101173.63;;;2.27;100.00
59951;BME280;45812;53.540;9.774;2022-12-07T01:18:25;101171.25;;;2.23;100.00
59951;BME280;45812;53.540;9.774;2022-12-07T01:21:02;101169.34;;;2.12;100.00
59951;BME280;45812;53.540;9.774;2022-12-07T01:23:29;101171.34;;;2.08;100.00
59951;BME280;45812;53.540;9.774;2022-12-07T01:25:58;101172.38;;;2.06;100.00
59951;BME280;45812;53.540;9.774;2022-12-07T01:28:25;101168.63;;;2.10;100.00
59951;BME280;45812;53.540;9.774;2022-12-07T01:33:22;101174.16;;;2.05;100.00
59951;BME280;45812;53.540;9.774;2022-12-07T01:35:47;101179.22;;;2.08;100.00
59951;BME280;45812;53.540;9.774;2022-12-07T01:38:12;101166.97;;;2.22;100.00
59951;BME280;45812;53.540;9.774;2022-12-07T01:40:38;101167.25;;;2.17;100.00
59951;BME280;45812;53.540;9.774;2022-12-07T01:43:09;101170.28;;;2.11;100.00
59951;BME280;45812;53.540;9.774;2022-12-07T01:45:41;101172.56;;;2.03;100.00
59951;BME280;45812;53.540;9.774;2022-12-07T01:48:08;101165.25;;;2.08;100.00
59951;BME280;45812;53.540;9.774;2022-12-07T01:50:35;101174.53;;;1.99;100.00
59951;BME280;45812;53.540;9.774;2022-12-07T01:53:03;101161.22;;;2.02;100.00
59951;BME280;45812;53.540;9.774;2022-12-07T01:55:30;101170.03;;;2.01;100.00
59951;BME280;45812;53.540;9.774;2022-12-07T01:57:56;101165.69;;;1.88;100.00
59951;BME280;45812;53.540;9.774;2022-12-07T02:00:22;101169.38;;;1.71;100.00
59951;BME280;45812;53.540;9.774;2022-12-07T02:02:51;101167.19;;;1.77;100.00
59951;BME280;45812;53.540;9.774;2022-12-07T02:05:18;101173.41;;;1.76;100.00
59951;BME280;45812;53.540;9.774;2022-12-07T02:07:46;101172.22;;;1.54;100.00
59951;BME280;45812;53.540;9.774;2022-12-07T02:10:24;101177.19;;;1.58;100.00
59951;BME280;45812;53.540;9.774;2022-12-07T02:12:54;101174.03;;;1.80;100.00
59951;BME280;45812;53.540;9.774;2022-12-07T02:15:22;101174.63;;;1.71;100.00
59951;BME280;45812;53.540;9.774;2022-12-07T02:18:24;101175.63;;;1.82;100.00
59951;BME280;45812;53.540;9.774;2022-12-07T02:23:39;101183.53;;;1.68;100.00
59951;BME280;45812;53.540;9.774;2022-12-07T02:28:47;101174.09;;;1.37;100.00
59951;BME280;45812;53.540;9.774;2022-12-07T02:31:18;101170.91;;;1.46;100.00
59951;BME280;45812;53.540;9.774;2022-12-07T02:33:49;101167.81;;;1.54;100.00
59951;BME280;45812;53.540;9.774;2022-12-07T02:36:28;101166.59;;;1.60;100.00
59951;BME280;45812;53.540;9.774;2022-12-07T02:39:07;101163.28;;;1.70;100.00
59951;BME280;45812;53.540;9.774;2022-12-07T02:41:42;101176.50;;;1.69;100.00
59951;BME280;45812;53.540;9.774;2022-12-07T02:44:11;101173.16;;;1.52;100.00
59951;BME280;45812;53.540;9.774;2022-12-07T02:46:42;101169.50;;;1.55;100.00
59951;BME280;45812;53.540;9.774;2022-12-07T02:49:08;101168.75;;;1.39;100.00
59951;BME280;45812;53.540;9.774;2022-12-07T02:51:39;101172.31;;;1.52;100.00
59951;BME280;45812;53.540;9.774;2022-12-07T02:54:12;101159.34;;;1.77;100.00
59951;BME280;45812;53.540;9.774;2022-12-07T02:59:25;101170.03;;;1.60;100.00
59951;BME280;45812;53.540;9.774;2022-12-07T03:02:13;101170.16;;;1.44;100.00
59951;BME280;45812;53.540;9.774;2022-12-07T03:10:46;101172.56;;;1.62;100.00
59951;BME280;45812;53.540;9.774;2022-12-07T03:13:22;101163.31;;;1.42;100.00
59951;BME280;45812;53.540;9.774;2022-12-07T03:18:22;101164.25;;;1.55;100.00
59951;BME280;45812;53.540;9.774;2022-12-07T03:20:51;101169.41;;;1.28;100.00
59951;BME280;45812;53.540;9.774;2022-12-07T03:23:19;101163.81;;;1.34;100.00
59951;BME280;45812;53.540;9.774;2022-12-07T03:25:49;101163.16;;;1.31;100.00
59951;BME280;45812;53.540;9.774;2022-12-07T03:28:17;101165.09;;;1.27;100.00
59951;BME280;45812;53.540;9.774;2022-12-07T03:30:55;101164.19;;;1.14;100.00
59951;BME280;45812;53.540;9.774;2022-12-07T03:33:25;101164.63;;;1.06;100.00
59951;BME280;45812;53.540;9.774;2022-12-07T03:36:04;101167.53;;;0.87;100.00
59951;BME280;45812;53.540;9.774;2022-12-07T03:38:33;101164.81;;;0.89;100.00
59951;BME280;45812;53.540;9.774;2022-12-07T03:41:22;101173.25;;;0.94;100.00
59951;BME280;45812;53.540;9.774;2022-12-07T03:43:49;101167.72;;;0.84;100.00
59951;BME280;45812;53.540;9.774;2022-12-07T03:49:11;101169.78;;;0.94;100.00
59951;BME280;45812;53.540;9.774;2022-12-07T03:51:50;101161.81;;;0.81;100.00
59951;BME280;45812;53.540;9.774;2022-12-07T03:54:27;101162.59;;;0.97;100.00
59951;BME280;45812;53.540;9.774;2022-12-07T03:56:55;101164.47;;;0.95;100.00
59951;BME280;45812;53.540;9.774;2022-12-07T03:59:23;101168.09;;;1.07;100.00
59951;BME280;45812;53.540;9.774;2022-12-07T04:01:54;101175.88;;;1.08;100.00
59951;BME280;45812;53.540;9.774;2022-12-07T04:04:20;101170.44;;;1.11;100.00
59951;BME280;45812;53.540;9.774;2022-12-07T04:06:45;101176.63;;;1.10;100.00
59951;BME280;45812;53.540;9.774;2022-12-07T04:09:10;101180.56;;;1.03;100.00
59951;BME280;45812;53.540;9.774;2022-12-07T04:11:36;101181.59;;;1.15;100.00
59951;BME280;45812;53.540;9.774;2022-12-07T04:14:01;101174.94;;;1.24;100.00
59951;BME280;45812;53.540;9.774;2022-12-07T04:16:48;101176.81;;;1.36;100.00
59951;BME280;45812;53.540;9.774;2022-12-07T04:19:14;101171.88;;;1.31;100.00
59951;BME280;45812;53.540;9.774;2022-12-07T04:21:40;101170.00;;;1.19;100.00
59951;BME280;45812;53.540;9.774;2022-12-07T04:24:05;101177.75;;;1.06;100.00
59951;BME280;45812;53.540;9.774;2022-12-07T04:26:31;101174.09;;;0.95;100.00
59951;BME280;45812;53.540;9.774;2022-12-07T04:28:56;101174.00;;;0.96;100.00
59951;BME280;45812;53.540;9.774;2022-12-07T04:31:21;101178.50;;;0.94;100.00
59951;BME280;45812;53.540;9.774;2022-12-07T04:33:46;101178.00;;;0.87;100.00
59951;BME280;45812;53.540;9.774;2022-12-07T04:36:12;101171.44;;;0.80;100.00
59951;BME280;45812;53.540;9.774;2022-12-07T04:38:37;101175.56;;;0.84;100.00
59951;BME280;45812;53.540;9.774;2022-12-07T04:41:06;101179.22;;;0.82;100.00
59951;BME280;45812;53.540;9.774;2022-12-07T04:43:32;101178.38;;;0.81;100.00
59951;BME280;45812;53.540;9.774;2022-12-07T04:45:58;101175.94;;;0.93;100.00
59951;BME280;45812;53.540;9.774;2022-12-07T04:48:23;101174.56;;;1.01;100.00
59951;BME280;45812;53.540;9.774;2022-12-07T04:50:48;101166.97;;;0.82;100.00
59951;BME280;45812;53.540;9.774;2022-12-07T04:53:14;101170.81;;;0.77;100.00
59951;BME280;45812;53.540;9.774;2022-12-07T04:55:40;101168.41;;;0.58;100.00
59951;BME280;45812;53.540;9.774;2022-12-07T04:58:05;101163.69;;;0.49;100.00
59951;BME280;45812;53.540;9.774;2022-12-07T05:00:30;101173.16;;;0.51;100.00
59951;BME280;45812;53.540;9.774;2022-12-07T05:02:55;101170.91;;;0.45;100.00
59951;BME280;45812;53.540;9.774;2022-12-07T05:05:21;101171.91;;;0.87;100.00
59951;BME280;45812;53.540;9.774;2022-12-07T05:07:46;101175.03;;;1.08;100.00
59951;BME280;45812;53.540;9.774;2022-12-07T05:10:11;101167.16;;;0.79;100.00
59951;BME280;45812;53.540;9.774;2022-12-07T05:12:36;101170.53;;;0.21;100.00
59951;BME280;45812;53.540;9.774;2022-12-07T05:15:02;101167.19;;;0.04;100.00
59951;BME280;45812;53.540;9.774;2022-12-07T05:17:27;101165.59;;;0.01;100.00
59951;BME280;45812;53.540;9.774;2022-12-07T05:19:52;101162.28;;;0.43;100.00
59951;BME280;45812;53.540;9.774;2022-12-07T05:22:17;101160.16;;;0.20;100.00
59951;BME280;45812;53.540;9.774;2022-12-07T05:24:43;101159.53;;;0.30;100.00
59951;BME280;45812;53.540;9.774;2022-12-07T05:27:08;101165.53;;;0.17;100.00
59951;BME280;45812;53.540;9.774;2022-12-07T05:29:33;101159.75;;;0.12;100.00
59951;BME280;45812;53.540;9.774;2022-12-07T05:31:58;101162.72;;;0.06;100.00
59951;BME280;45812;53.540;9.774;2022-12-07T05:34:24;101161.00;;;0.20;100.00
59951;BME280;45812;53.540;9.774;2022-12-07T05:36:49;101164.41;;;0.07;100.00
59951;BME280;45812;53.540;9.774;2022-12-07T05:39:15;101159.09;;;0.38;100.00
59951;BME280;45812;53.540;9.774;2022-12-07T05:41:40;101159.16;;;0.07;100.00
59951;BME280;45812;53.540;9.774;2022-12-07T05:44:24;101159.53;;;0.01;100.00
59951;BME280;45812;53.540;9.774;2022-12-07T05:46:49;101155.13;;;0.01;100.00
59951;BME280;45812;53.540;9.774;2022-12-07T05:49:14;101161.03;;;0.05;100.00
59951;BME280;45812;53.540;9.774;2022-12-07T05:51:40;101159.47;;;0.16;100.00
59951;BME280;45812;53.540;9.774;2022-12-07T05:54:05;101156.75;;;0.18;100.00
59951;BME280;45812;53.540;9.774;2022-12-07T05:56:30;101162.50;;;0.24;100.00
59951;BME280;45812;53.540;9.774;2022-12-07T05:58:55;101162.00;;;0.18;100.00
59951;BME280;45812;53.540;9.774;2022-12-07T06:01:39;101162.72;;;0.06;100.00
59951;BME280;45812;53.540;9.774;2022-12-07T06:04:05;101162.00;;;0.18;100.00
59951;BME280;45812;53.540;9.774;2022-12-07T06:06:30;101161.28;;;0.00;100.00
59951;BME280;45812;53.540;9.774;2022-12-07T06:08:55;101159.16;;;0.07;100.00
59951;BME280;45812;53.540;9.774;2022-12-07T06:11:20;101154.59;;;-0.06;100.00
59951;BME280;45812;53.540;9.774;2022-12-07T06:14:04;101167.59;;;0.12;100.00
59951;BME280;45812;53.540;9.774;2022-12-07T06:16:29;101168.63;;;-0.07;100.00
59951;BME280;45812;53.540;9.774;2022-12-07T06:18:55;101164.66;;;0.02;100.00
59951;BME280;45812;53.540;9.774;2022-12-07T06:21:20;101160.06;;;0.51;100.00
59951;BME280;45812;53.540;9.774;2022-12-07T06:23:45;101158.50;;;0.03;100.00
59951;BME280;45812;53.540;9.774;2022-12-07T06:26:12;101160.88;;;-0.08;100.00
59951;BME280;45812;53.540;9.774;2022-12-07T06:28:38;101157.00;;;-0.17;100.00
59951;BME280;45812;53.540;9.774;2022-12-07T06:31:03;101158.91;;;-0.20;100.00
59951;BME280;45812;53.540;9.774;2022-12-07T06:33:29;101156.16;;;-0.17;100.00
59951;BME280;45812;53.540;9.774;2022-12-07T06:35:54;101154.97;;;-0.12;100.00
59951;BME280;45812;53.540;9.774;2022-12-07T06:38:20;101157.56;;;0.04;100.00
59951;BME280;45812;53.540;9.774;2022-12-07T06:40:45;101154.94;;;0.04;100.00
59951;BME280;45812;53.540;9.774;2022-12-07T06:43:10;101160.84;;;0.08;100.00
59951;BME280;45812;53.540;9.774;2022-12-07T06:45:36;101156.38;;;0.10;100.00
59951;BME280;45812;53.540;9.774;2022-12-07T06:48:01;101149.84;;;0.17;100.00
59951;BME280;45812;53.540;9.774;2022-12-07T06:50:26;101151.53;;;0.18;100.00
59951;BME280;45812;53.540;9.774;2022-12-07T06:52:52;101153.44;;;0.30;100.00
59951;BME280;45812;53.540;9.774;2022-12-07T06:55:17;101143.63;;;0.34;100.00
59951;BME280;45812;53.540;9.774;2022-12-07T06:57:43;101149.63;;;0.36;100.00
59951;BME280;45812;53.540;9.774;2022-12-07T07:00:09;101145.00;;;0.41;100.00
59951;BME280;45812;53.540;9.774;2022-12-07T07:02:34;101149.63;;;0.66;100.00
59951;BME280;45812;53.540;9.774;2022-12-07T07:04:59;101154.28;;;0.60;100.00
59951;BME280;45812;53.540;9.774;2022-12-07T07:07:25;101152.91;;;0.69;100.00
59951;BME280;45812;53.540;9.774;2022-12-07T07:09:50;101155.41;;;0.56;100.00
59951;BME280;45812;53.540;9.774;2022-12-07T07:12:15;101163.19;;;0.72;100.00
59951;BME280;45812;53.540;9.774;2022-12-07T07:14:40;101162.72;;;0.66;100.00
59951;BME280;45812;53.540;9.774;2022-12-07T07:17:06;101162.56;;;0.83;100.00
59951;BME280;45812;53.540;9.774;2022-12-07T07:19:32;101161.00;;;0.95;100.00
59951;BME280;45812;53.540;9.774;2022-12-07T07:21:57;101160.16;;;0.94;100.00
59951;BME280;45812;53.540;9.774;2022-12-07T07:24:22;101155.53;;;0.83;100.00
59951;BME280;45812;53.540;9.774;2022-12-07T07:26:47;101164.25;;;0.84;100.00
59951;BME280;45812;53.540;9.774;2022-12-07T07:29:13;101163.94;;;0.74;100.00
59951;BME280;45812;53.540;9.774;2022-12-07T07:31:38;101165.16;;;0.69;100.00
59951;BME280;45812;53.540;9.774;2022-12-07T07:34:03;101165.91;;;0.71;100.00
59951;BME280;45812;53.540;9.774;2022-12-07T07:36:29;101166.28;;;0.65;100.00
59951;BME280;45812;53.540;9.774;2022-12-07T07:38:54;101167.59;;;0.72;100.00
59951;BME280;45812;53.540;9.774;2022-12-07T07:41:19;101172.47;;;0.92;100.00
59951;BME280;45812;53.540;9.774;2022-12-07T07:43:44;101171.38;;;0.82;100.00
59951;BME280;45812;53.540;9.774;2022-12-07T07:46:10;101173.41;;;0.91;100.00
59951;BME280;45812;53.540;9.774;2022-12-07T07:48:35;101172.69;;;1.03;100.00
59951;BME280;45812;53.540;9.774;2022-12-07T07:51:00;101174.75;;;0.98;100.00
59951;BME280;45812;53.540;9.774;2022-12-07T07:53:29;101177.47;;;1.25;100.00
59951;BME280;45812;53.540;9.774;2022-12-07T07:55:54;101176.38;;;1.15;100.00
59951;BME280;45812;53.540;9.774;2022-12-07T07:58:20;101175.53;;;1.14;100.00
59951;BME280;45812;53.540;9.774;2022-12-07T08:00:46;101182.34;;;1.03;100.00
59951;BME280;45812;53.540;9.774;2022-12-07T08:03:11;101179.25;;;1.10;100.00
59951;BME280;45812;53.540;9.774;2022-12-07T08:05:37;101177.41;;;1.12;100.00
59951;BME280;45812;53.540;9.774;2022-12-07T08:08:02;101175.69;;;1.11;100.00
59951;BME280;45812;53.540;9.774;2022-12-07T08:10:28;101173.00;;;1.13;100.00
59951;BME280;45812;53.540;9.774;2022-12-07T08:12:53;101171.97;;;1.15;100.00
59951;BME280;45812;53.540;9.774;2022-12-07T08:15:38;101175.31;;;1.17;100.00
59951;BME280;45812;53.540;9.774;2022-12-07T08:18:03;101171.19;;;1.28;100.00
59951;BME280;45812;53.540;9.774;2022-12-07T08:20:33;101180.00;;;1.55;100.00
59951;BME280;45812;53.540;9.774;2022-12-07T08:22:59;101170.78;;;1.62;100.00
59951;BME280;45812;53.540;9.774;2022-12-07T08:25:25;101178.84;;;1.73;100.00
59951;BME280;45812;53.540;9.774;2022-12-07T08:27:51;101171.63;;;1.63;100.00
59951;BME280;45812;53.540;9.774;2022-12-07T08:30:16;101181.81;;;1.67;100.00
59951;BME280;45812;53.540;9.774;2022-12-07T08:32:41;101172.28;;;1.66;100.00
59951;BME280;45812;53.540;9.774;2022-12-07T08:35:07;101173.59;;;1.73;100.00
59951;BME280;45812;53.540;9.774;2022-12-07T08:37:33;101176.00;;;1.91;100.00
59951;BME280;45812;53.540;9.774;2022-12-07T08:39:58;101172.47;;;2.04;100.00
59951;BME280;45812;53.540;9.774;2022-12-07T08:42:23;101171.44;;;2.07;100.00
59951;BME280;45812;53.540;9.774;2022-12-07T08:44:52;101165.03;;;2.11;100.00
59951;BME280;45812;53.540;9.774;2022-12-07T08:47:18;101182.19;;;2.17;100.00
59951;BME280;45812;53.540;9.774;2022-12-07T08:49:47;101177.81;;;2.30;100.00
59951;BME280;45812;53.540;9.774;2022-12-07T08:52:13;101166.59;;;2.40;100.00
59951;BME280;45812;53.540;9.774;2022-12-07T08:54:39;101174.63;;;2.52;100.00
59951;BME280;45812;53.540;9.774;2022-12-07T08:57:05;101179.41;;;2.32;100.00
59951;BME280;45812;53.540;9.774;2022-12-07T08:59:33;101188.97;;;2.33;100.00
59951;BME280;45812;53.540;9.774;2022-12-07T09:01:59;101187.97;;;2.49;100.00
59951;BME280;45812;53.540;9.774;2022-12-07T09:04:24;101184.97;;;2.40;100.00
59951;BME280;45812;53.540;9.774;2022-12-07T09:06:50;101182.50;;;2.52;100.00
59951;BME280;45812;53.540;9.774;2022-12-07T09:09:15;101186.09;;;2.63;100.00
59951;BME280;45812;53.540;9.774;2022-12-07T09:11:40;101184.00;;;2.68;100.00
59951;BME280;45812;53.540;9.774;2022-12-07T09:14:06;101184.84;;;2.69;100.00
59951;BME280;45812;53.540;9.774;2022-12-07T09:16:31;101189.69;;;2.75;100.00
59951;BME280;45812;53.540;9.774;2022-12-07T09:18:56;101191.19;;;2.92;100.00
59951;BME280;45812;53.540;9.774;2022-12-07T09:21:21;101195.38;;;2.94;100.00
59951;BME280;45812;53.540;9.774;2022-12-07T09:23:47;101186.44;;;2.97;100.00
59951;BME280;45812;53.540;9.774;2022-12-07T09:26:12;101182.75;;;3.12;100.00
59951;BME280;45812;53.540;9.774;2022-12-07T09:28:38;101173.81;;;3.15;100.00
59951;BME280;45812;53.540;9.774;2022-12-07T09:31:04;101177.50;;;3.12;100.00
59951;BME280;45812;53.540;9.774;2022-12-07T09:33:30;101181.72;;;3.15;100.00
59951;BME280;45812;53.540;9.774;2022-12-07T09:35:55;101181.31;;;3.21;100.00
59951;BME280;45812;53.540;9.774;2022-12-07T09:38:21;101184.34;;;3.27;100.00
59951;BME280;45812;53.540;9.774;2022-12-07T09:40:46;101178.06;;;3.17;100.00
59951;BME280;45812;53.540;9.774;2022-12-07T09:43:15;101184.13;;;3.43;100.00
59951;BME280;45812;53.540;9.774;2022-12-07T09:45:41;101190.34;;;3.42;100.00
59951;BME280;45812;53.540;9.774;2022-12-07T09:48:16;101187.38;;;3.59;100.00
59951;BME280;45812;53.540;9.774;2022-12-07T09:50:42;101176.75;;;3.48;100.00
59951;BME280;45812;53.540;9.774;2022-12-07T09:53:14;101175.50;;;3.54;100.00
59951;BME280;45812;53.540;9.774;2022-12-07T09:55:41;101177.84;;;3.70;100.00
59951;BME280;45812;53.540;9.774;2022-12-07T09:58:17;101172.22;;;3.87;100.00
59951;BME280;45812;53.540;9.774;2022-12-07T10:00:44;101176.38;;;4.02;100.00
59951;BME280;45812;53.540;9.774;2022-12-07T10:03:11;101165.34;;;3.97;100.00
59951;BME280;45812;53.540;9.774;2022-12-07T10:05:43;101174.34;;;3.82;100.00
59951;BME280;45812;53.540;9.774;2022-12-07T10:08:11;101177.69;;;3.97;100.00
59951;BME280;45812;53.540;9.774;2022-12-07T10:10:37;101180.47;;;3.82;100.00
59951;BME280;45812;53.540;9.774;2022-12-07T10:13:08;101176.59;;;3.75;100.00
59951;BME280;45812;53.540;9.774;2022-12-07T10:15:55;101186.63;;;3.57;100.00
59951;BME280;45812;53.540;9.774;2022-12-07T10:18:29;101188.88;;;3.38;100.00
59951;BME280;45812;53.540;9.774;2022-12-07T10:21:05;101193.59;;;3.33;100.00
59951;BME280;45812;53.540;9.774;2022-12-07T10:23:33;101188.66;;;3.54;100.00
59951;BME280;45812;53.540;9.774;2022-12-07T10:25:59;101186.84;;;3.54;100.00
59951;BME280;45812;53.540;9.774;2022-12-07T10:28:33;101181.53;;;3.67;100.00
59951;BME280;45812;53.540;9.774;2022-12-07T10:31:03;101176.84;;;3.47;100.00
59951;BME280;45812;53.540;9.774;2022-12-07T10:33:57;101173.81;;;3.27;100.00
59951;BME280;45812;53.540;9.774;2022-12-07T10:36:24;101168.56;;;3.27;100.00
59951;BME280;45812;53.540;9.774;2022-12-07T10:38:59;101177.50;;;3.38;100.00
59951;BME280;45812;53.540;9.774;2022-12-07T10:41:25;101165.09;;;3.27;100.00
59951;BME280;45812;53.540;9.774;2022-12-07T10:43:53;101166.88;;;3.39;100.00
59951;BME280;45812;53.540;9.774;2022-12-07T10:51:41;101159.78;;;3.89;100.00
59951;BME280;45812;53.540;9.774;2022-12-07T10:54:12;101158.38;;;4.20;100.00
59951;BME280;45812;53.540;9.774;2022-12-07T10:56:53;101156.25;;;4.25;100.00
59951;BME280;45812;53.540;9.774;2022-12-07T10:59:35;101147.50;;;4.24;100.00
59951;BME280;45812;53.540;9.774;2022-12-07T11:02:25;101151.38;;;4.32;100.00
59951;BME280;45812;53.540;9.774;2022-12-07T11:05:06;101150.91;;;4.38;100.00
59951;BME280;45812;53.540;9.774;2022-12-07T11:07:59;101150.09;;;4.13;100.00
59951;BME280;45812;53.540;9.774;2022-12-07T11:10:36;101148.56;;;4.22;100.00
59951;BME280;45812;53.540;9.774;2022-12-07T11:13:28;101151.09;;;4.23;100.00
59951;BME280;45812;53.540;9.774;2022-12-07T11:16:04;101149.31;;;4.00;100.00
59951;BME280;45812;53.540;9.774;2022-12-07T11:19:02;101143.47;;;4.08;100.00
59951;BME280;45812;53.540;9.774;2022-12-07T11:27:38;101145.91;;;4.46;100.00
59951;BME280;45812;53.540;9.774;2022-12-07T11:32:57;101140.63;;;4.46;100.00
59951;BME280;45812;53.540;9.774;2022-12-07T11:35:34;101134.22;;;4.61;99.68
59951;BME280;45812;53.540;9.774;2022-12-07T11:38:14;101141.00;;;4.88;99.04
59951;BME280;45812;53.540;9.774;2022-12-07T11:40:49;101127.69;;;5.00;98.61
59951;BME280;45812;53.540;9.774;2022-12-07T11:43:29;101129.69;;;4.74;97.42
59951;BME280;45812;53.540;9.774;2022-12-07T11:46:04;101127.56;;;4.44;98.22
59951;BME280;45812;53.540;9.774;2022-12-07T11:48:35;101121.31;;;4.34;98.90
59951;BME280;45812;53.540;9.774;2022-12-07T11:51:03;101127.69;;;4.43;98.63
59951;BME280;45812;53.540;9.774;2022-12-07T11:53:38;101114.19;;;4.12;100.00
59951;BME280;45812;53.540;9.774;2022-12-07T11:56:14;101122.31;;;4.09;100.00
59951;BME280;45812;53.540;9.774;2022-12-07T11:59:02;101120.22;;;4.02;100.00
59951;BME280;45812;53.540;9.774;2022-12-07T12:06:31;101101.59;;;4.51;100.00
59951;BME280;45812;53.540;9.774;2022-12-07T12:12:09;101116.84;;;4.59;100.00
59951;BME280;45812;53.540;9.774;2022-12-07T12:14:55;101109.75;;;4.48;100.00
59951;BME280;45812;53.540;9.774;2022-12-07T12:17:50;101109.59;;;4.38;100.00
59951;BME280;45812;53.540;9.774;2022-12-07T12:20:23;101118.28;;;4.63;100.00
59951;BME280;45812;53.540;9.774;2022-12-07T12:23:35;101114.59;;;4.99;99.79
59951;BME280;45812;53.540;9.774;2022-12-07T12:26:05;101115.81;;;5.17;97.65
59951;BME280;45812;53.540;9.774;2022-12-07T12:33:47;101114.50;;;5.99;93.37
59951;BME280;45812;53.540;9.774;2022-12-07T12:47:04;101095.31;;;8.40;75.38
59951;BME280;45812;53.540;9.774;2022-12-07T12:50:27;101095.75;;;8.82;71.96
59951;BME280;45812;53.540;9.774;2022-12-07T12:52:57;101101.81;;;8.65;73.59
59951;BME280;45812;53.540;9.774;2022-12-07T12:58:27;101093.19;;;8.43;74.54
59951;BME280;45812;53.540;9.774;2022-12-07T13:04:00;101095.94;;;7.74;77.39
59951;BME280;45812;53.540;9.774;2022-12-07T13:08:58;101092.28;;;7.16;79.77
59951;BME280;45812;53.540;9.774;2022-12-07T13:11:37;101100.00;;;7.28;79.99
59951;BME280;45812;53.540;9.774;2022-12-07T13:14:42;101096.75;;;6.85;82.64
59951;BME280;45812;53.540;9.774;2022-12-07T13:17:53;101097.72;;;6.63;84.51
59951;BME280;45812;53.540;9.774;2022-12-07T13:19:59;101094.56;;;6.27;84.94
59951;BME280;45812;53.540;9.774;2022-12-07T13:25:19;101099.69;;;5.54;91.34
59951;BME280;45812;53.540;9.774;2022-12-07T13:27:54;101096.16;;;4.88;93.65
59951;BME280;45812;53.540;9.774;2022-12-07T13:30:22;101097.69;;;5.01;93.85
59951;BME280;45812;53.540;9.774;2022-12-07T13:32:52;101093.28;;;4.91;95.56
59951;BME280;45812;53.540;9.774;2022-12-07T13:35:32;101092.66;;;4.98;94.55
59951;BME280;45812;53.540;9.774;2022-12-07T13:37:59;101093.84;;;4.72;95.28
59951;BME280;45812;53.540;9.774;2022-12-07T13:40:24;101096.84;;;4.67;95.23
59951;BME280;45812;53.540;9.774;2022-12-07T13:43:04;101098.13;;;4.62;94.84
59951;BME280;45812;53.540;9.774;2022-12-07T13:45:37;101102.81;;;4.58;95.82
59951;BME280;45812;53.540;9.774;2022-12-07T13:48:26;101100.91;;;4.60;95.53
59951;BME280;45812;53.540;9.774;2022-12-07T13:50:55;101109.75;;;4.59;96.61
59951;BME280;45812;53.540;9.774;2022-12-07T13:53:20;101102.44;;;4.51;97.02
59951;BME280;45812;53.540;9.774;2022-12-07T13:55:46;101109.75;;;4.59;97.78
59951;BME280;45812;53.540;9.774;2022-12-07T13:58:13;101109.06;;;4.68;97.54
59951;BME280;45812;53.540;9.774;2022-12-07T14:00:40;101104.31;;;4.84;96.64
59951;BME280;45812;53.540;9.774;2022-12-07T14:05:40;101096.81;;;5.68;93.70
59951;BME280;45812;53.540;9.774;2022-12-07T14:08:22;101093.03;;;5.93;89.54
59951;BME280;45812;53.540;9.774;2022-12-07T14:13:32;101102.38;;;5.31;84.08
59951;BME280;45812;53.540;9.774;2022-12-07T14:15:59;101100.69;;;5.19;83.58
59951;BME280;45812;53.540;9.774;2022-12-07T14:18:43;101097.09;;;5.31;79.88